Time;durP1;ratioP1;P1;durP2;ratioP2;P2;SDS_P1;SDS_P2;PMS_P1;PMS_P2;Temp;Humidity;BMP_temperature;BMP_pressure;BME280_temperature;BME280_humidity;BME280_pressure;Samples;Min_cycle;Max_cycle;Signal;HPM_P1;HPM_P2
2022/01/03 00:01:45;;;;;;;10.57;4.33;;;;;;;9.32;69.61;99498.66;4939668;29;20210;-92
2022/01/03 00:04:11;;;;;;;8.50;4.23;;;;;;;9.24;70.32;99501.59;4940000;29;20184;-92
2022/01/03 00:06:40;;;;;;;10.03;5.33;;;;;;;9.27;70.27;99506.72;4939553;29;20663;-94
2022/01/03 00:09:07;;;;;;;9.20;3.97;;;;;;;9.28;70.12;99507.53;4939182;29;20189;-94
2022/01/03 00:11:33;;;;;;;8.27;3.57;;;;;;;9.19;70.19;99508.78;4939574;29;20180;-93
2022/01/03 00:13:59;;;;;;;11.53;4.23;;;;;;;9.11;69.84;99513.47;4939659;29;20206;-93
2022/01/03 00:16:25;;;;;;;8.77;4.50;;;;;;;9.00;70.12;99510.44;4939434;29;20272;-93
2022/01/03 00:18:51;;;;;;;8.87;4.07;;;;;;;8.95;69.95;99507.16;4939495;29;20181;-92
2022/01/03 00:21:18;;;;;;;7.07;3.60;;;;;;;8.90;69.84;99501.28;4939617;29;20279;-93
2022/01/03 00:24:07;;;;;;;9.10;4.70;;;;;;;8.78;70.08;99493.91;4939514;29;20183;-94
2022/01/03 00:26:35;;;;;;;10.43;4.97;;;;;;;8.78;70.10;99490.47;4939273;29;20539;-92
2022/01/03 00:29:07;;;;;;;7.43;3.43;;;;;;;8.67;70.24;99492.63;4939575;29;20226;-93
2022/01/03 00:31:35;;;;;;;9.33;5.40;;;;;;;8.64;70.34;99473.56;4939378;29;20180;-94
2022/01/03 00:34:04;;;;;;;9.73;5.33;;;;;;;8.62;69.61;99479.75;4939043;29;20282;-93
2022/01/03 00:36:31;;;;;;;13.73;4.87;;;;;;;8.55;70.26;99483.50;4939126;29;20181;-92
2022/01/03 00:38:56;;;;;;;9.60;4.53;;;;;;;8.49;70.63;99483.75;4939032;29;20632;-94
2022/01/03 00:41:23;;;;;;;9.17;4.90;;;;;;;8.48;71.00;99476.81;4939057;29;20198;-93
2022/01/03 00:43:52;;;;;;;9.07;3.20;;;;;;;8.49;71.05;99462.84;4939136;29;20178;-93
2022/01/03 00:46:18;;;;;;;7.40;4.57;;;;;;;8.41;71.11;99460.50;4939095;29;20204;-93
2022/01/03 00:48:44;;;;;;;8.13;4.53;;;;;;;8.35;71.45;99449.47;4938948;29;20542;-93
2022/01/03 00:51:13;;;;;;;6.90;3.17;;;;;;;8.23;71.99;99452.53;4939011;29;20185;-93
2022/01/03 00:53:39;;;;;;;5.37;2.97;;;;;;;8.22;72.20;99445.59;4938909;29;20737;-93
2022/01/03 00:56:12;;;;;;;7.00;3.30;;;;;;;8.27;71.74;99441.94;4938851;29;20204;-95
2022/01/03 00:58:54;;;;;;;5.03;2.63;;;;;;;8.22;71.48;99435.16;4939044;29;20211;-92
2022/01/03 01:01:22;;;;;;;6.60;3.00;;;;;;;8.14;71.13;99427.59;4938974;29;20537;-94
2022/01/03 01:03:53;;;;;;;6.87;2.70;;;;;;;8.12;71.14;99423.34;4938842;29;20208;-93
2022/01/03 01:06:21;;;;;;;7.97;3.93;;;;;;;8.01;71.57;99414.19;4938845;29;20201;-93
2022/01/03 01:08:48;;;;;;;7.33;3.03;;;;;;;7.98;71.58;99408.22;4938734;29;20629;-92
2022/01/03 01:11:16;;;;;;;6.13;3.03;;;;;;;7.93;71.20;99405.78;4938727;29;20185;-93
2022/01/03 01:13:44;;;;;;;4.50;2.10;;;;;;;7.93;71.49;99404.94;4939126;29;20265;-93
2022/01/03 01:16:09;;;;;;;4.00;2.37;;;;;;;7.89;71.36;99408.53;4938652;29;20178;-93
2022/01/03 01:18:37;;;;;;;5.43;2.40;;;;;;;7.85;70.59;99412.19;4938670;29;20688;-94
2022/01/03 01:21:06;;;;;;;3.73;2.23;;;;;;;7.80;70.35;99406.28;4940062;29;20262;-93
2022/01/03 01:23:33;;;;;;;6.50;3.27;;;;;;;7.74;71.05;99398.69;4942481;29;20184;-95
2022/01/03 01:28:43;;;;;;;5.97;3.23;;;;;;;7.71;70.82;99390.97;4959812;29;20208;-94
2022/01/03 01:31:11;;;;;;;5.50;2.67;;;;;;;7.64;70.51;99392.97;4942544;29;20352;-93
2022/01/03 01:33:37;;;;;;;6.30;2.53;;;;;;;7.63;70.20;99395.59;4942340;29;20613;-93
2022/01/03 01:36:05;;;;;;;4.50;2.13;;;;;;;7.58;70.56;99389.72;4942630;29;20173;-93
2022/01/03 01:38:34;;;;;;;3.80;1.87;;;;;;;7.62;70.18;99386.09;4942812;29;20189;-92
2022/01/03 01:41:03;;;;;;;4.13;1.87;;;;;;;7.65;70.02;99386.00;4942273;29;20687;-93
2022/01/03 01:43:46;;;;;;;2.73;1.60;;;;;;;7.64;68.88;99390.34;4942207;29;20181;-93
2022/01/03 01:46:20;;;;;;;3.60;1.83;;;;;;;7.47;69.38;99395.31;4942294;29;20212;-93
2022/01/03 01:48:48;;;;;;;4.17;2.13;;;;;;;7.49;68.65;99393.53;4942257;29;20187;-95
2022/01/03 01:51:16;;;;;;;4.83;2.17;;;;;;;7.41;69.14;99396.41;4941984;29;20188;-93
2022/01/03 01:53:45;;;;;;;4.63;1.97;;;;;;;7.34;69.19;99381.00;4942129;29;20568;-94
2022/01/03 01:56:23;;;;;;;4.33;1.77;;;;;;;7.28;69.25;99389.06;4942081;29;20196;-95
2022/01/03 01:59:14;;;;;;;9.10;2.23;;;;;;;7.11;70.01;99367.94;4942140;29;20263;-94
2022/01/03 02:01:48;;;;;;;3.27;1.93;;;;;;;7.02;70.58;99360.44;4931899;29;20203;-93
2022/01/03 02:04:42;;;;;;;3.40;1.83;;;;;;;7.02;70.33;99360.44;4942142;29;20173;-93
2022/01/03 02:07:44;;;;;;;4.33;1.80;;;;;;;7.05;70.24;99349.94;4941917;29;20181;-93
2022/01/03 02:10:12;;;;;;;2.70;1.77;;;;;;;6.95;70.19;99348.50;4942884;29;20414;-92
2022/01/03 02:12:41;;;;;;;4.17;1.90;;;;;;;6.85;70.13;99336.72;4942317;29;20189;-93
2022/01/03 02:15:13;;;;;;;5.20;2.77;;;;;;;6.81;70.18;99317.75;4941859;29;20241;-94
2022/01/03 02:17:39;;;;;;;4.80;2.93;;;;;;;6.74;70.14;99311.88;4942664;29;20565;-94
2022/01/03 02:20:08;;;;;;;5.13;3.03;;;;;;;6.73;70.05;99299.75;4942035;29;20271;-94
2022/01/03 02:22:34;;;;;;;3.30;1.97;;;;;;;6.83;69.80;99287.28;4941870;29;20193;-94
2022/01/03 02:24:59;;;;;;;5.13;2.40;;;;;;;6.89;69.56;99289.69;4941643;29;20209;-94
2022/01/03 02:27:26;;;;;;;3.90;2.07;;;;;;;6.86;69.70;99286.31;4942164;29;20185;-94
2022/01/03 02:29:51;;;;;;;5.17;2.73;;;;;;;6.93;69.19;99287.81;4941541;29;20661;-94
2022/01/03 02:32:17;;;;;;;2.97;1.97;;;;;;;6.89;68.71;99276.66;4942596;29;20195;-93
2022/01/03 02:34:42;;;;;;;4.90;2.43;;;;;;;6.85;68.93;99275.03;4942401;29;20192;-93
2022/01/03 02:37:08;;;;;;;8.10;3.23;;;;;;;6.87;68.86;99288.00;4941436;29;20259;-92
2022/01/03 02:39:34;;;;;;;6.30;3.00;;;;;;;6.69;69.66;99285.16;4941413;29;20204;-94
2022/01/03 02:41:59;;;;;;;8.70;4.13;;;;;;;6.56;70.78;99276.06;4941377;29;20252;-93
2022/01/03 02:44:25;;;;;;;3.67;2.40;;;;;;;6.57;71.27;99272.56;4941167;29;20184;-93
2022/01/03 02:46:51;;;;;;;13.60;2.77;;;;;;;6.68;70.80;99270.41;4941331;29;20272;-93
2022/01/03 02:49:17;;;;;;;9.00;2.47;;;;;;;6.70;70.76;99265.16;4941165;29;20223;-92
2022/01/03 02:51:44;;;;;;;6.83;2.63;;;;;;;6.70;70.67;99268.63;4941414;29;20587;-93
2022/01/03 02:54:10;;;;;;;3.93;2.10;;;;;;;6.72;70.44;99268.56;4941022;29;20181;-93
2022/01/03 02:56:36;;;;;;;2.93;2.30;;;;;;;6.70;70.99;99270.38;4941202;29;20181;-94
2022/01/03 02:59:02;;;;;;;9.13;3.30;;;;;;;6.64;70.74;99266.22;4941342;29;20196;-93
2022/01/03 03:01:28;;;;;;;4.80;2.10;;;;;;;6.66;70.38;99253.13;4940942;29;20185;-93
2022/01/03 03:03:53;;;;;;;5.63;2.20;;;;;;;6.63;70.83;99254.09;4941155;29;20532;-93
2022/01/03 03:06:19;;;;;;;5.23;2.60;;;;;;;6.68;70.89;99257.38;4941090;29;20284;-93
2022/01/03 03:08:44;;;;;;;6.07;2.93;;;;;;;6.67;70.60;99258.31;4941166;29;20525;-93
2022/01/03 03:11:10;;;;;;;4.27;2.37;;;;;;;6.61;70.49;99249.84;4941173;29;20195;-94
2022/01/03 03:13:35;;;;;;;6.80;2.57;;;;;;;6.56;70.40;99256.97;4941307;29;20189;-93
2022/01/03 03:16:01;;;;;;;5.33;1.70;;;;;;;6.54;70.47;99264.00;4942343;29;20648;-92
2022/01/03 03:18:26;;;;;;;13.03;2.67;;;;;;;6.61;70.30;99266.34;4942316;29;20185;-94
2022/01/03 03:20:54;;;;;;;3.30;1.60;;;;;;;6.57;71.37;99277.78;4941694;29;20651;-93
2022/01/03 03:23:23;;;;;;;4.63;1.60;;;;;;;6.46;72.91;99287.69;4942066;29;20180;-94
2022/01/03 03:25:49;;;;;;;3.10;1.43;;;;;;;6.03;75.88;99302.97;4943178;29;20223;-93
2022/01/03 03:28:15;;;;;;;2.63;1.47;;;;;;;5.97;76.98;99288.44;4941311;29;20196;-93
2022/01/03 03:30:47;;;;;;;1.73;0.60;;;;;;;6.08;76.81;99267.25;4942868;29;20278;-93
2022/01/03 03:33:18;;;;;;;1.30;0.67;;;;;;;6.11;76.79;99270.63;4942195;29;20181;-95
2022/01/03 03:35:44;;;;;;;0.87;0.60;;;;;;;6.05;77.68;99280.41;4947454;29;20171;-96
2022/01/03 03:38:11;;;;;;;1.23;1.00;;;;;;;6.11;78.12;99282.78;4947806;29;20185;-96
2022/01/03 03:40:37;;;;;;;2.30;0.93;;;;;;;6.00;79.57;99293.53;4946923;29;20219;-96
2022/01/03 03:43:03;;;;;;;1.27;0.90;;;;;;;5.86;81.37;99303.53;4942541;28;20208;-96
2022/01/03 03:45:28;;;;;;;1.23;1.00;;;;;;;5.80;82.87;99295.03;4947969;29;20679;-96
2022/01/03 03:47:57;;;;;;;1.87;1.27;;;;;;;5.81;82.68;99288.94;4944728;29;20212;-96
2022/01/03 03:50:24;;;;;;;2.80;1.17;;;;;;;5.79;82.95;99288.97;4944911;29;20180;-96
2022/01/03 03:52:49;;;;;;;6.17;1.80;;;;;;;5.93;83.06;99284.22;4945441;29;20198;-95
2022/01/03 03:55:15;;;;;;;3.87;1.37;;;;;;;5.93;83.17;99281.63;4942873;29;20174;-96
2022/01/03 03:57:41;;;;;;;2.60;1.40;;;;;;;5.91;83.14;99270.41;4943034;29;20220;-96
2022/01/03 04:00:12;;;;;;;4.07;1.63;;;;;;;5.92;83.25;99255.66;4940741;29;20197;-96
2022/01/03 04:02:38;;;;;;;2.03;1.33;;;;;;;6.03;83.53;99249.22;4941202;29;20269;-95
2022/01/03 04:05:05;;;;;;;3.47;1.70;;;;;;;6.11;83.26;99249.81;4939586;29;20220;-96
2022/01/03 04:07:30;;;;;;;1.90;1.03;;;;;;;6.19;83.27;99246.94;4939551;29;20186;-96
2022/01/03 04:09:56;;;;;;;2.80;1.83;;;;;;;6.32;82.63;99261.25;4939899;29;20279;-95
2022/01/03 04:12:21;;;;;;;2.50;1.67;;;;;;;6.40;82.09;99261.84;4939646;29;20193;-95
2022/01/03 04:14:47;;;;;;;4.73;2.10;;;;;;;6.45;81.87;99248.66;4939348;29;20190;-96
2022/01/03 04:17:12;;;;;;;3.87;2.30;;;;;;;6.49;81.59;99247.69;4939661;29;20176;-95
2022/01/03 04:19:38;;;;;;;4.60;2.13;;;;;;;6.47;81.60;99245.09;4939367;29;20652;-95
2022/01/03 04:22:04;;;;;;;5.70;2.80;;;;;;;6.49;81.60;99245.94;4939984;29;20189;-95
2022/01/03 04:24:30;;;;;;;12.07;1.77;;;;;;;6.56;80.73;99249.16;4939189;29;20181;-95
2022/01/03 04:26:55;;;;;;;5.57;2.00;;;;;;;6.64;80.57;99253.22;4939295;29;20180;-94
2022/01/03 04:29:21;;;;;;;4.73;2.17;;;;;;;6.74;80.23;99251.97;4939260;29;20200;-95
2022/01/03 04:31:46;;;;;;;6.77;2.70;;;;;;;6.77;80.01;99257.09;4939343;29;20181;-94
2022/01/03 04:34:13;;;;;;;7.70;2.93;;;;;;;6.80;79.33;99249.16;4939209;29;20628;-96
2022/01/03 04:36:39;;;;;;;6.30;3.40;;;;;;;6.78;78.95;99235.34;4939095;29;20184;-94
2022/01/03 04:39:05;;;;;;;6.47;3.17;;;;;;;6.81;79.01;99235.22;4939963;29;20181;-95
2022/01/03 04:41:31;;;;;;;5.37;2.47;;;;;;;6.81;78.89;99232.59;4939589;29;20260;-95
2022/01/03 04:43:57;;;;;;;5.80;2.70;;;;;;;6.78;79.31;99231.88;4939114;29;20208;-94
2022/01/03 04:46:22;;;;;;;4.83;2.37;;;;;;;6.77;78.92;99241.44;4939376;29;20233;-95
2022/01/03 04:48:47;;;;;;;12.20;3.27;;;;;;;6.76;79.17;99237.13;4939276;29;20565;-94
2022/01/03 04:51:13;;;;;;;8.50;4.30;;;;;;;6.88;79.21;99232.41;4938964;29;20235;-95
2022/01/03 04:53:40;;;;;;;10.33;4.47;;;;;;;6.94;79.05;99220.00;4938882;29;20510;-94
2022/01/03 04:56:10;;;;;;;10.97;3.93;;;;;;;7.02;78.70;99224.94;4955138;28;20173;-94
2022/01/03 04:58:37;;;;;;;10.77;3.87;;;;;;;7.07;78.65;99223.00;4939895;29;20185;-95
2022/01/03 05:01:02;;;;;;;8.87;3.63;;;;;;;7.09;77.85;99227.25;4938892;29;20184;-95
2022/01/03 05:03:28;;;;;;;13.30;5.03;;;;;;;7.06;77.63;99226.50;4938938;29;20655;-94
2022/01/03 05:05:53;;;;;;;6.37;3.47;;;;;;;7.10;77.61;99217.69;4938715;29;20710;-94
2022/01/03 05:08:19;;;;;;;7.00;4.23;;;;;;;7.14;77.40;99204.47;4939019;29;20196;-96
2022/01/03 05:10:44;;;;;;;5.60;2.67;;;;;;;7.19;77.20;99201.69;4938753;29;20272;-95
2022/01/03 05:13:10;;;;;;;5.37;2.30;;;;;;;7.15;77.37;99200.13;4954650;29;20233;-95
2022/01/03 05:15:35;;;;;;;4.90;2.47;;;;;;;7.20;76.96;99198.19;4938685;29;20541;-95
2022/01/03 05:18:01;;;;;;;6.17;1.93;;;;;;;7.19;77.07;99205.16;4938858;29;20191;-95
2022/01/03 05:20:26;;;;;;;3.10;1.90;;;;;;;7.22;76.83;99212.88;4938741;29;20181;-95
2022/01/03 05:22:52;;;;;;;2.97;1.73;;;;;;;7.22;76.59;99215.47;4955657;29;20189;-96
2022/01/03 05:25:18;;;;;;;4.87;1.97;;;;;;;7.17;76.70;99213.94;4938557;29;20672;-92
2022/01/03 05:27:44;;;;;;;6.07;2.00;;;;;;;7.12;76.42;99227.16;4938546;29;20220;-93
2022/01/03 05:30:10;;;;;;;5.73;2.70;;;;;;;7.02;77.44;99207.56;4938495;29;20196;-91
2022/01/03 05:32:36;;;;;;;4.50;2.47;;;;;;;7.01;76.97;99205.84;4938527;29;20188;-92
2022/01/03 05:35:02;;;;;;;3.47;1.90;;;;;;;7.01;77.12;99212.81;4938597;29;20181;-93
2022/01/03 05:37:27;;;;;;;3.80;1.87;;;;;;;7.03;76.82;99210.97;4938665;29;20268;-93
2022/01/03 05:39:53;;;;;;;4.83;2.40;;;;;;;7.07;76.56;99192.59;4938402;29;20191;-91
2022/01/03 05:42:18;;;;;;;6.47;2.87;;;;;;;6.98;76.54;99195.53;4938417;29;20244;-91
2022/01/03 05:44:43;;;;;;;4.77;2.20;;;;;;;6.97;76.38;99201.63;4939045;29;20217;-92
2022/01/03 05:47:09;;;;;;;4.73;2.23;;;;;;;6.88;76.39;99195.91;4955228;29;20181;-92
2022/01/03 05:49:35;;;;;;;2.97;1.60;;;;;;;6.90;76.61;99196.72;4938739;29;20637;-92
2022/01/03 05:52:00;;;;;;;1.83;1.40;;;;;;;6.86;76.64;99197.75;4938673;29;20220;-92
2022/01/03 05:54:26;;;;;;;8.20;2.30;;;;;;;6.89;76.83;99210.66;4955588;29;20208;-91
2022/01/03 05:56:52;;;;;;;5.60;1.90;;;;;;;6.94;76.68;99207.00;4938392;29;20185;-93
2022/01/03 05:59:17;;;;;;;3.03;1.53;;;;;;;6.93;76.28;99199.22;4938337;29;20181;-92
2022/01/03 06:01:43;;;;;;;3.97;1.83;;;;;;;6.91;76.22;99201.03;4938259;29;20656;-92
2022/01/03 06:04:21;;;;;;;4.03;1.93;;;;;;;6.88;76.67;99196.78;4938409;29;20264;-92
2022/01/03 06:06:56;;;;;;;5.93;1.57;;;;;;;6.92;76.35;99200.13;4939430;29;20200;-93
2022/01/03 06:09:23;;;;;;;4.30;2.70;;;;;;;7.02;76.16;99193.66;4941775;29;20177;-91
2022/01/03 06:11:51;;;;;;;4.20;1.93;;;;;;;6.95;76.15;99194.78;4941778;29;20256;-93
2022/01/03 06:14:18;;;;;;;3.40;1.93;;;;;;;7.02;76.50;99204.94;4941743;29;20668;-93
2022/01/03 06:16:48;;;;;;;3.47;1.87;;;;;;;6.95;76.45;99211.28;4941697;29;20181;-92
2022/01/03 06:19:15;;;;;;;6.43;2.63;;;;;;;6.97;76.79;99222.47;4941675;29;20181;-92
2022/01/03 06:21:41;;;;;;;5.63;2.10;;;;;;;6.96;75.75;99226.00;4958542;29;20597;-92
2022/01/03 06:24:09;;;;;;;5.80;1.87;;;;;;;6.93;76.63;99238.28;4941469;29;20632;-91
2022/01/03 06:26:35;;;;;;;5.23;1.80;;;;;;;6.87;76.52;99226.34;4941916;29;20275;-91
2022/01/03 06:29:01;;;;;;;4.70;2.37;;;;;;;6.84;77.02;99209.97;4958073;29;20268;-91
2022/01/03 06:31:26;;;;;;;6.77;3.13;;;;;;;6.81;77.14;99213.56;4958123;29;20256;-90
2022/01/03 06:33:51;;;;;;;2.73;1.63;;;;;;;6.91;77.51;99216.66;4941298;29;20207;-90
2022/01/03 06:36:17;;;;;;;5.47;1.80;;;;;;;7.02;77.12;99212.78;4941243;29;20191;-90
2022/01/03 06:38:42;;;;;;;5.57;2.33;;;;;;;7.06;77.31;99203.06;4957856;29;20264;-90
2022/01/03 06:41:08;;;;;;;8.93;3.00;;;;;;;7.15;77.35;99205.34;4941005;29;20181;-91
2022/01/03 06:43:35;;;;;;;3.80;1.93;;;;;;;7.17;77.46;99195.69;4957895;29;20207;-91
2022/01/03 06:46:01;;;;;;;4.70;2.40;;;;;;;7.13;77.16;99196.69;4941062;29;20201;-92
2022/01/03 06:48:26;;;;;;;4.97;2.07;;;;;;;7.25;77.36;99196.25;4958162;29;20184;-92
2022/01/03 06:50:52;;;;;;;4.30;2.10;;;;;;;7.28;77.46;99199.59;4958001;29;20647;-91
2022/01/03 06:53:17;;;;;;;5.70;2.77;;;;;;;7.23;77.20;99198.06;4941001;29;20181;-92
2022/01/03 06:55:43;;;;;;;6.47;2.13;;;;;;;7.17;77.30;99201.75;4940854;29;20173;-93
2022/01/03 06:58:08;;;;;;;4.27;2.57;;;;;;;7.26;77.05;99196.19;4940928;29;20180;-91
2022/01/03 07:00:34;;;;;;;5.40;2.63;;;;;;;7.36;77.49;99199.31;4958086;29;20185;-93
2022/01/03 07:02:59;;;;;;;3.53;2.27;;;;;;;7.41;76.95;99190.41;4940958;29;20184;-93
2022/01/03 07:05:25;;;;;;;4.17;2.10;;;;;;;7.58;77.09;99189.72;4940696;29;20209;-93
2022/01/03 07:07:50;;;;;;;4.47;2.07;;;;;;;7.63;77.04;99189.53;4940787;29;20223;-91
2022/01/03 07:10:18;;;;;;;5.27;1.90;;;;;;;7.68;77.11;99196.25;4940664;29;20213;-91
2022/01/03 07:12:44;;;;;;;4.80;2.57;;;;;;;7.72;77.36;99197.84;4940508;29;20640;-90
2022/01/03 07:20:39;;;;;;;4.80;2.80;;;;;;;8.22;77.83;99171.44;4957848;29;20524;-92
2022/01/03 07:23:05;;;;;;;5.17;2.67;;;;;;;8.30;76.85;99179.81;4940464;29;20192;-92
2022/01/03 07:25:31;;;;;;;13.77;7.23;;;;;;;8.50;77.10;99180.66;4940203;29;20205;-91
2022/01/03 07:27:56;;;;;;;7.23;3.70;;;;;;;8.63;77.02;99179.19;4940315;29;20188;-90
2022/01/03 07:30:22;;;;;;;5.10;2.47;;;;;;;8.64;76.96;99188.75;4940235;29;20177;-92
2022/01/03 07:32:47;;;;;;;9.03;2.70;;;;;;;8.77;77.14;99185.59;4940323;29;20244;-92
2022/01/03 07:35:16;;;;;;;8.93;3.23;;;;;;;8.72;76.77;99188.41;4940262;29;20281;-91
2022/01/03 07:37:41;;;;;;;7.10;2.87;;;;;;;8.80;77.05;99185.44;4956871;29;20182;-92
2022/01/03 07:40:08;;;;;;;4.43;3.00;;;;;;;8.68;76.72;99181.59;4939995;29;20253;-92
2022/01/03 07:42:33;;;;;;;7.83;2.77;;;;;;;8.74;77.19;99176.13;4940008;29;20190;-92
2022/01/03 07:44:58;;;;;;;8.80;3.20;;;;;;;8.84;77.11;99174.78;4939931;29;20206;-92
2022/01/03 07:47:24;;;;;;;7.87;3.17;;;;;;;8.97;76.85;99177.69;4940145;29;20251;-91
2022/01/03 07:49:49;;;;;;;3.93;2.20;;;;;;;9.05;75.69;99197.34;4956994;29;20189;-93
2022/01/03 07:52:15;;;;;;;4.73;2.77;;;;;;;8.97;75.60;99183.78;4940533;29;20536;-92
2022/01/03 07:54:40;;;;;;;5.60;2.83;;;;;;;9.01;75.81;99187.97;4957053;29;20212;-93
2022/01/03 07:57:06;;;;;;;11.33;4.33;;;;;;;9.07;76.60;99200.72;4939960;29;20259;-92
2022/01/03 07:59:31;;;;;;;6.23;3.00;;;;;;;9.16;77.27;99199.47;4939690;29;20255;-93
2022/01/03 08:01:58;;;;;;;9.47;4.03;;;;;;;9.27;78.24;99190.22;4956051;29;20539;-92
2022/01/03 08:04:24;;;;;;;15.63;6.80;;;;;;;9.52;78.73;99192.53;4939675;29;20261;-92
2022/01/03 08:06:49;;;;;;;10.17;4.53;;;;;;;9.71;78.87;99187.25;4956578;29;20597;-94
2022/01/03 08:09:15;;;;;;;5.47;2.20;;;;;;;9.80;79.11;99178.97;4956633;29;20180;-92
2022/01/03 08:11:40;;;;;;;4.80;2.70;;;;;;;9.76;79.28;99182.66;4956463;29;20209;-92
2022/01/03 08:14:06;;;;;;;9.17;3.87;;;;;;;9.79;80.44;99188.59;4956360;29;20637;-93
2022/01/03 08:16:32;;;;;;;6.57;3.07;;;;;;;9.80;80.40;99182.41;4956415;29;20617;-92
2022/01/03 08:18:57;;;;;;;5.47;3.03;;;;;;;9.85;80.83;99174.38;4939837;29;20252;-92
2022/01/03 08:21:23;;;;;;;5.87;2.70;;;;;;;9.87;82.57;99164.66;4956077;29;20646;-92
2022/01/03 08:23:48;;;;;;;8.17;3.73;;;;;;;10.12;81.16;99173.00;4939378;29;20259;-92
2022/01/03 08:26:14;;;;;;;9.93;3.97;;;;;;;10.34;80.75;99157.91;4939744;29;20239;-91
2022/01/03 08:28:39;;;;;;;11.27;3.80;;;;;;;10.48;80.86;99154.59;4955844;29;20240;-92
2022/01/03 08:31:05;;;;;;;10.27;4.33;;;;;;;10.47;80.55;99156.34;4939521;29;20281;-93
2022/01/03 08:33:30;;;;;;;13.80;4.67;;;;;;;10.69;80.62;99147.38;4939686;29;20184;-92
2022/01/03 08:35:57;;;;;;;9.33;3.37;;;;;;;10.92;80.84;99152.25;4939232;29;20613;-92
2022/01/03 08:38:23;;;;;;;9.50;3.87;;;;;;;11.03;80.33;99145.47;4939184;29;20192;-92
2022/01/03 08:40:48;;;;;;;10.53;4.50;;;;;;;11.11;80.51;99148.53;4939211;29;20184;-96
2022/01/03 08:43:14;;;;;;;8.97;4.47;;;;;;;11.38;80.56;99146.16;4955053;29;20227;-92
2022/01/03 08:45:39;;;;;;;7.03;3.30;;;;;;;11.64;80.50;99145.56;4955919;29;20208;-92
2022/01/03 08:48:05;;;;;;;8.73;3.57;;;;;;;11.90;80.69;99135.34;4938906;29;20715;-92
2022/01/03 08:50:30;;;;;;;9.40;4.30;;;;;;;12.19;79.88;99126.63;4939160;29;20192;-93
2022/01/03 08:52:56;;;;;;;9.87;4.80;;;;;;;12.44;77.91;99124.25;4955758;29;20200;-92
2022/01/03 08:55:21;;;;;;;12.90;5.10;;;;;;;12.59;77.40;99130.34;4938953;29;20190;-93
2022/01/03 08:57:51;;;;;;;10.90;4.97;;;;;;;12.82;76.85;99130.63;4939029;29;20201;-93
2022/01/03 09:00:17;;;;;;;11.20;5.73;;;;;;;12.90;75.35;99125.75;4939075;29;20293;-92
2022/01/03 09:02:43;;;;;;;8.70;3.97;;;;;;;12.89;73.73;99126.66;4938900;29;20185;-94
2022/01/03 09:05:08;;;;;;;16.37;7.90;;;;;;;12.91;72.25;99116.06;4938824;29;20211;-90
2022/01/03 09:07:34;;;;;;;14.53;8.23;;;;;;;13.09;72.11;99104.41;4941693;29;20275;-94
2022/01/03 09:09:59;;;;;;;11.83;6.53;;;;;;;13.09;71.62;99098.31;4941447;29;20273;-93
2022/01/03 09:12:25;;;;;;;11.97;5.23;;;;;;;13.12;72.33;99088.44;4939183;29;20214;-94
2022/01/03 09:14:51;;;;;;;8.40;4.77;;;;;;;13.12;72.12;99066.53;4943056;29;20284;-92
2022/01/03 09:17:16;;;;;;;12.70;6.13;;;;;;;13.32;71.84;99063.44;4940920;29;20297;-93
2022/01/03 09:19:42;;;;;;;19.43;8.60;;;;;;;13.30;71.01;99065.34;4941825;29;20715;-93
2022/01/03 09:22:17;;;;;;;30.73;8.17;;;;;;;13.36;70.58;99059.69;4944675;29;20200;-94
2022/01/03 09:24:53;;;;;;;17.10;7.87;;;;;;;13.47;70.65;99057.19;4941644;29;20187;-94
2022/01/03 09:30:10;;;;;;;14.00;5.80;;;;;;;13.85;71.09;99057.28;4958999;29;20275;-94
2022/01/03 09:32:36;;;;;;;13.03;5.70;;;;;;;14.02;69.01;99055.19;4943746;29;20188;-94
2022/01/03 09:35:02;;;;;;;15.60;6.10;;;;;;;13.93;67.05;99042.66;4943235;29;20200;-94
2022/01/03 09:37:27;;;;;;;10.13;5.63;;;;;;;14.07;66.60;99031.19;4941988;29;20254;-94
2022/01/03 09:39:54;;;;;;;9.40;5.07;;;;;;;14.20;67.08;99036.47;4941143;29;20685;-94
2022/01/03 09:42:27;;;;;;;9.40;3.93;;;;;;;14.21;64.79;99027.56;4946442;29;20177;-94
2022/01/03 09:44:58;;;;;;;9.67;4.90;;;;;;;14.29;65.22;99030.53;4947178;29;20256;-94
2022/01/03 09:47:27;;;;;;;8.30;3.77;;;;;;;14.66;65.09;99013.84;4945489;29;20165;-94
2022/01/03 09:49:54;;;;;;;9.10;4.40;;;;;;;14.95;62.95;99017.03;4945730;29;20544;-94
2022/01/03 09:52:25;;;;;;;7.13;3.50;;;;;;;15.14;61.28;99004.22;4945821;29;20185;-94
2022/01/03 09:54:52;;;;;;;10.60;4.67;;;;;;;15.25;60.37;99002.44;4945341;29;20199;-95
2022/01/03 09:57:26;;;;;;;8.13;3.50;;;;;;;15.45;59.51;99008.06;4943763;29;20627;-94
2022/01/03 09:59:53;;;;;;;6.33;3.40;;;;;;;15.53;56.79;99008.38;4942544;29;20173;-94
2022/01/03 10:02:25;;;;;;;10.43;4.30;;;;;;;15.70;57.92;99007.94;4943045;29;20180;-94
2022/01/03 10:04:50;;;;;;;5.97;2.73;;;;;;;15.82;58.28;99001.75;4942650;29;20187;-94
2022/01/03 10:07:17;;;;;;;7.97;3.80;;;;;;;15.87;57.52;98992.50;4944724;29;20179;-93
2022/01/03 10:09:44;;;;;;;7.20;3.73;;;;;;;16.07;57.78;98985.66;4942449;29;20182;-93
2022/01/03 10:12:11;;;;;;;7.50;3.33;;;;;;;16.16;57.39;98982.31;4941767;29;20181;-95
2022/01/03 10:15:01;;;;;;;;;;;;;;;;;;;;;
2022/01/03 10:17:27;;;;;;;5.93;2.80;;;;;;;16.51;54.36;98966.31;4959187;29;20181;-92
2022/01/03 10:19:57;;;;;;;3.63;1.87;;;;;;;16.69;53.21;98956.97;4942202;29;20187;-94
2022/01/03 10:22:29;;;;;;;6.80;3.17;;;;;;;16.73;52.83;98941.66;4941482;29;20187;-94
2022/01/03 10:24:59;;;;;;;4.57;1.93;;;;;;;16.93;53.20;98938.22;4941427;29;20259;-93
2022/01/03 10:27:44;;;;;;;7.37;2.70;;;;;;;16.94;53.19;98946.06;4941539;29;20187;-92
2022/01/03 10:30:12;;;;;;;7.03;3.23;;;;;;;17.16;54.04;98932.72;4940842;29;20229;-95
2022/01/03 10:33:00;;;;;;;5.53;2.77;;;;;;;17.34;53.08;98930.38;4941582;29;20243;-93
2022/01/03 10:36:01;;;;;;;5.90;2.70;;;;;;;17.28;53.08;98928.22;4941681;29;20185;-94
2022/01/03 10:39:03;;;;;;;7.80;3.53;;;;;;;17.49;52.19;98918.50;4941471;29;20337;-94
2022/01/03 10:41:31;;;;;;;6.90;3.20;;;;;;;17.50;49.80;98921.97;4939572;29;20189;-94
2022/01/03 10:44:07;;;;;;;6.40;3.20;;;;;;;17.52;51.69;98912.94;4941245;29;20221;-93
2022/01/03 10:47:07;;;;;;;7.03;3.30;;;;;;;17.50;50.74;98906.94;4941838;29;20197;-94
2022/01/03 10:56:38;;;;;;;;;;;;;;;;;;;;;
2022/01/03 11:03:22;;;;;;;;;;;;;;;;;;;;;
2022/01/03 11:16:40;;;;;;;26.43;10.67;;;;;;;18.89;49.81;98857.47;4880532;29;20190;-94
2022/01/03 11:19:47;;;;;;;19.33;8.57;;;;;;;19.02;48.93;98851.91;4865156;29;20628;-93
2022/01/03 11:23:17;;;;;;;;;;;;;;;;;;;;;
2022/01/03 11:26:37;;;;;;;;;;;;;;;;;;;;;
2022/01/03 11:29:29;;;;;;;18.13;7.60;;;;;;;19.73;47.94;98831.94;4947364;29;20544;-91
2022/01/03 11:35:10;;;;;;;;;;;;;;;;;;;;;
2022/01/03 11:38:19;;;;;;;;;;;;;;;;;;;;;
2022/01/03 11:51:31;;;;;;;9.83;4.57;;;;;;;20.80;43.94;98796.56;4787336;30;20220;-91
2022/01/03 11:54:13;;;;;;;7.87;3.20;;;;;;;20.88;43.24;98787.81;4809979;29;20189;-90
2022/01/03 12:06:32;;;;;;;5.63;2.60;;;;;;;21.23;41.73;98758.44;4935835;29;20213;-91
2022/01/03 12:09:19;;;;;;;5.43;2.40;;;;;;;21.13;42.68;98755.03;4920350;29;20237;-91
2022/01/03 12:12:27;;;;;;;6.20;3.17;;;;;;;21.30;42.23;98741.66;4919674;29;20181;-91
2022/01/03 12:15:02;;;;;;;7.57;3.40;;;;;;;21.38;42.09;98733.72;4913711;29;20221;-91
2022/01/03 12:19:20;;;;;;;;;;;;;;;;;;;;;
2022/01/03 12:22:06;;;;;;;7.57;2.70;;;;;;;21.46;42.50;98745.44;4869176;29;20320;-92
2022/01/03 12:25:01;;;;;;;;;;;;;;;;;;;;;
2022/01/03 12:28:10;;;;;;;7.83;2.87;;;;;;;21.63;41.80;98741.84;4919506;29;20178;-90
2022/01/03 12:30:54;;;;;;;3.80;1.83;;;;;;;21.69;41.97;98754.56;4935608;29;20236;-90
2022/01/03 12:33:27;;;;;;;8.20;2.83;;;;;;;21.72;41.03;98746.22;4936181;29;20213;-92
2022/01/03 12:36:18;;;;;;;6.77;2.87;;;;;;;21.42;41.08;98748.41;4918658;29;20180;-91
2022/01/03 12:39:05;;;;;;;8.50;3.67;;;;;;;21.57;42.84;98737.13;4926214;29;20204;-90
2022/01/03 12:41:55;;;;;;;;;;;;;;;;;;;;;
2022/01/03 12:44:49;;;;;;;5.17;2.60;;;;;;;21.33;41.90;98720.00;4934604;29;20180;-90
2022/01/03 12:47:24;;;;;;;6.97;2.67;;;;;;;21.36;41.08;98726.88;4917743;29;20186;-91
2022/01/03 12:50:34;;;;;;;6.47;2.93;;;;;;;21.35;41.77;98712.72;4934058;29;20164;-91
2022/01/03 12:53:22;;;;;;;8.43;2.50;;;;;;;21.34;41.69;98705.69;4917720;29;20187;-91
2022/01/03 12:56:04;;;;;;;8.53;3.27;;;;;;;21.38;41.14;98708.91;4932189;29;20192;-91
2022/01/03 12:58:32;;;;;;;7.27;4.30;;;;;;;21.35;42.13;98706.53;4919330;29;20178;-90
2022/01/03 13:01:30;;;;;;;6.93;2.77;;;;;;;21.42;42.08;98707.56;4936426;29;20178;-90
2022/01/03 13:04:07;;;;;;;7.63;3.30;;;;;;;21.44;41.12;98710.91;4925257;29;20188;-90